Time;durP1;ratioP1;P1;durP2;ratioP2;P2;SDS_P1;SDS_P2;PMS_P1;PMS_P2;Temp;Humidity;BMP_temperature;BMP_pressure;BME280_temperature;BME280_humidity;BME280_pressure;Samples;Min_cycle;Max_cycle;Signal;HPM_P1;HPM_P2
2021/11/14 00:00:25;;;;;;;0.20;0.20;;;;;;;9.50;86.48;101899.44;5057428;28;20029;-69
2021/11/14 00:02:51;;;;;;;0.10;0.10;;;;;;;9.47;85.94;101900.19;5078625;28;20024;-68
2021/11/14 00:05:16;;;;;;;0.20;0.20;;;;;;;9.45;86.51;101896.59;5079328;28;20383;-68
2021/11/14 00:07:42;;;;;;;0.10;0.10;;;;;;;9.43;86.85;101897.34;5078979;28;20035;-68
2021/11/14 00:10:10;;;;;;;0.20;0.20;;;;;;;9.41;86.38;101893.75;5061237;28;20036;-69
2021/11/14 00:12:37;;;;;;;0.10;0.10;;;;;;;9.42;86.68;101906.91;5061820;28;20339;-69
2021/11/14 00:15:03;;;;;;;0.00;0.00;;;;;;;9.41;86.77;101905.09;5078510;28;20025;-70
2021/11/14 00:17:28;;;;;;;0.10;0.10;;;;;;;9.39;86.80;101906.75;5078804;28;20079;-69
2021/11/14 00:19:54;;;;;;;0.03;0.03;;;;;;;9.37;86.66;101905.78;5077359;28;20029;-68
2021/11/14 00:22:19;;;;;;;0.00;0.00;;;;;;;9.37;86.69;101912.72;5079194;28;20050;-68
2021/11/14 00:24:44;;;;;;;0.10;0.10;;;;;;;9.37;86.85;101911.00;5078994;28;20390;-69
2021/11/14 00:27:10;;;;;;;0.10;0.10;;;;;;;9.37;87.00;101925.78;5060604;28;20028;-69
2021/11/14 00:29:35;;;;;;;0.10;0.10;;;;;;;9.37;86.89;101920.56;5078538;28;20028;-69
2021/11/14 00:32:02;;;;;;;0.10;0.10;;;;;;;9.35;86.98;101931.84;5077578;28;20039;-69
2021/11/14 00:34:28;;;;;;;0.00;0.00;;;;;;;9.35;87.09;101926.59;5078580;28;20085;-68
2021/11/14 00:36:54;;;;;;;0.10;0.10;;;;;;;9.35;86.96;101928.34;5061186;28;20052;-68
2021/11/14 00:39:19;;;;;;;0.10;0.10;;;;;;;9.35;87.32;101931.84;5078167;28;20045;-70
2021/11/14 00:41:46;;;;;;;0.10;0.10;;;;;;;9.35;87.12;101930.94;5078031;28;20414;-69
2021/11/14 00:44:12;;;;;;;0.10;0.10;;;;;;;9.35;87.27;101929.22;5078125;28;20024;-69
2021/11/14 00:46:39;;;;;;;0.10;0.10;;;;;;;9.35;86.96;101928.34;5078274;28;20422;-69
2021/11/14 00:49:04;;;;;;;0.10;0.10;;;;;;;9.35;87.04;101928.34;5059976;28;20029;-69
2021/11/14 00:51:30;;;;;;;0.10;0.10;;;;;;;9.34;87.02;101927.44;5061190;28;20267;-69
2021/11/14 00:53:57;;;;;;;0.03;0.03;;;;;;;9.34;87.00;101932.66;5078076;28;20021;-68
2021/11/14 00:56:22;;;;;;;0.10;0.10;;;;;;;9.37;87.04;101929.31;5077886;28;20056;-69
2021/11/14 00:58:49;;;;;;;0.07;0.07;;;;;;;9.38;86.76;101927.56;5060157;28;20458;-69
2021/11/14 01:01:14;;;;;;;0.10;0.10;;;;;;;9.38;86.89;101923.25;5077856;28;20020;-69
2021/11/14 01:03:40;;;;;;;0.20;0.20;;;;;;;9.39;86.69;101927.66;5077625;28;20097;-68
2021/11/14 01:06:06;;;;;;;0.10;0.10;;;;;;;9.40;87.07;101932.06;5077725;28;20437;-69
2021/11/14 01:08:32;;;;;;;0.10;0.10;;;;;;;9.38;87.17;101933.72;5077552;28;20059;-68
2021/11/14 01:10:59;;;;;;;0.10;0.10;;;;;;;9.40;87.08;101941.63;5077640;28;20139;-69
2021/11/14 01:13:25;;;;;;;0.10;0.10;;;;;;;9.39;87.16;101945.97;5060217;28;20020;-68
2021/11/14 01:15:52;;;;;;;0.10;0.10;;;;;;;9.39;87.06;101945.06;5077820;28;20446;-69
2021/11/14 01:18:19;;;;;;;0.10;0.10;;;;;;;9.40;86.99;101947.75;5077387;28;20024;-68
2021/11/14 01:20:50;;;;;;;0.10;0.10;;;;;;;9.40;87.04;101950.38;5060418;28;20039;-69
2021/11/14 01:23:16;;;;;;;0.20;0.20;;;;;;;9.39;86.89;101956.41;5076875;28;20024;-68
2021/11/14 01:25:43;;;;;;;0.20;0.20;;;;;;;9.40;87.05;101957.31;5060196;28;20081;-69
2021/11/14 01:28:09;;;;;;;0.20;0.20;;;;;;;9.38;86.81;101952.00;5077042;28;20025;-69
2021/11/14 01:30:36;;;;;;;0.10;0.10;;;;;;;9.41;87.37;101956.50;5077667;28;20098;-69
2021/11/14 01:33:04;;;;;;;0.20;0.20;;;;;;;9.41;86.68;101960.00;5076883;28;20032;-69
2021/11/14 01:35:30;;;;;;;0.20;0.20;;;;;;;9.42;86.59;101967.06;5077845;28;20028;-69
2021/11/14 01:37:57;;;;;;;0.10;0.10;;;;;;;9.41;86.68;101960.00;5076823;28;20020;-69
2021/11/14 01:40:30;;;;;;;0.10;0.10;;;;;;;9.41;86.82;101962.63;5077186;28;20043;-69
2021/11/14 01:42:56;;;;;;;0.10;0.10;;;;;;;9.42;86.74;101959.22;5076952;28;20357;-69
2021/11/14 01:45:22;;;;;;;0.10;0.10;;;;;;;9.42;86.61;101964.44;5077509;28;20012;-69
2021/11/14 01:47:47;;;;;;;0.13;0.13;;;;;;;9.43;86.64;101965.31;5076841;28;20024;-69
2021/11/14 01:50:15;;;;;;;0.10;0.10;;;;;;;9.43;86.21;101971.44;5076998;28;20358;-69
2021/11/14 01:52:42;;;;;;;0.10;0.10;;;;;;;9.44;86.56;101974.94;5077196;28;20048;-69
2021/11/14 01:55:09;;;;;;;0.10;0.10;;;;;;;9.43;86.62;101974.06;5059851;28;20100;-67
2021/11/14 01:57:36;;;;;;;0.10;0.10;;;;;;;9.42;86.69;101977.50;5076814;28;20028;-69
2021/11/14 02:00:16;;;;;;;0.00;0.00;;;;;;;9.43;86.65;101986.22;5076624;28;20033;-69
2021/11/14 02:02:41;;;;;;;0.30;0.30;;;;;;;9.43;86.70;101976.69;5059668;28;20032;-69
2021/11/14 02:05:09;;;;;;;0.00;0.00;;;;;;;9.43;86.70;101989.75;5076571;28;20021;-70
2021/11/14 02:07:35;;;;;;;0.10;0.10;;;;;;;9.43;86.74;101991.47;5059564;28;20029;-69
2021/11/14 02:10:00;;;;;;;0.20;0.20;;;;;;;9.42;86.82;101987.97;5075296;28;20063;-69
2021/11/14 02:12:26;;;;;;;0.10;0.10;;;;;;;9.43;86.77;101991.47;5077203;28;20036;-69
2021/11/14 02:14:51;;;;;;;0.00;0.00;;;;;;;9.42;86.79;101997.50;5059324;28;20290;-68
2021/11/14 02:17:17;;;;;;;0.10;0.10;;;;;;;9.40;86.88;101997.41;5077179;28;20111;-69
2021/11/14 02:19:48;;;;;;;0.17;0.17;;;;;;;9.39;86.82;102003.47;5076312;28;20047;-69
2021/11/14 02:22:13;;;;;;;0.10;0.10;;;;;;;9.38;86.59;102003.38;5075817;28;20143;-69
2021/11/14 02:24:39;;;;;;;0.10;0.10;;;;;;;9.38;86.68;102009.53;5076999;28;20398;-70
2021/11/14 02:27:04;;;;;;;0.20;0.20;;;;;;;9.40;86.41;102014.84;5059186;28;20268;-69
2021/11/14 02:29:30;;;;;;;0.10;0.10;;;;;;;9.38;86.43;102013.84;5076965;28;20021;-69
2021/11/14 02:31:55;;;;;;;0.20;0.20;;;;;;;9.35;86.25;102015.47;5076761;28;20048;-70
2021/11/14 02:34:21;;;;;;;0.07;0.07;;;;;;;9.35;86.40;102012.88;5058176;28;20039;-69
2021/11/14 02:36:46;;;;;;;0.10;0.10;;;;;;;9.35;86.23;102014.59;5077055;28;20028;-66
2021/11/14 02:39:12;;;;;;;0.23;0.23;;;;;;;9.35;86.30;102017.22;5058659;28;20299;-66
2021/11/14 02:41:37;;;;;;;0.10;0.10;;;;;;;9.36;86.30;102021.63;5058406;28;20115;-67
2021/11/14 02:44:03;;;;;;;0.10;0.10;;;;;;;9.35;86.30;102023.31;5058696;28;20032;-68
2021/11/14 02:46:29;;;;;;;0.10;0.10;;;;;;;9.34;86.30;102012.81;5058990;28;20207;-67
2021/11/14 02:48:54;;;;;;;0.10;0.10;;;;;;;9.34;86.55;102024.16;5074984;28;20061;-66
2021/11/14 02:51:23;;;;;;;0.20;0.20;;;;;;;9.36;86.62;102021.63;5076887;28;20337;-66
2021/11/14 02:53:49;;;;;;;0.20;0.20;;;;;;;9.37;86.57;102032.97;5076486;28;20020;-67
2021/11/14 02:56:15;;;;;;;0.07;0.07;;;;;;;9.36;86.82;102032.09;5058890;28;20027;-67
2021/11/14 02:58:43;;;;;;;0.10;0.10;;;;;;;9.36;86.84;102032.09;5076356;28;20046;-68
2021/11/14 03:01:13;;;;;;;0.00;0.00;;;;;;;9.37;86.77;102033.88;5076557;28;20094;-67
2021/11/14 03:03:39;;;;;;;0.10;0.10;;;;;;;9.37;86.69;102035.56;5076080;28;20107;-67
2021/11/14 03:06:06;;;;;;;0.30;0.30;;;;;;;9.35;87.13;102036.41;5076166;28;20090;-67
2021/11/14 03:08:31;;;;;;;0.10;0.10;;;;;;;9.35;87.15;102032.91;5058737;28;20303;-67
2021/11/14 03:10:57;;;;;;;0.07;0.07;;;;;;;9.34;87.25;102037.22;5059056;28;20021;-66
2021/11/14 03:13:23;;;;;;;0.00;0.00;;;;;;;9.33;87.39;102043.28;5076472;28;20028;-67
2021/11/14 03:16:00;;;;;;;0.10;0.10;;;;;;;9.32;87.15;102040.56;5059194;28;20051;-66
2021/11/14 03:18:26;;;;;;;0.10;0.10;;;;;;;9.30;87.41;102043.13;5075787;28;20082;-67
2021/11/14 03:20:53;;;;;;;0.10;0.10;;;;;;;9.30;87.43;102044.81;5078011;28;20031;-67
2021/11/14 03:23:20;;;;;;;0.10;0.10;;;;;;;9.30;87.55;102052.66;5062463;28;20063;-66
2021/11/14 03:25:46;;;;;;;0.00;0.00;;;;;;;9.29;87.62;102054.38;5079972;28;20160;-67
2021/11/14 03:28:12;;;;;;;0.10;0.10;;;;;;;9.29;87.59;102056.97;5079571;28;20028;-68
2021/11/14 03:30:37;;;;;;;0.10;0.10;;;;;;;9.30;87.47;102057.88;5079669;28;20020;-67
2021/11/14 03:33:05;;;;;;;0.00;0.00;;;;;;;9.31;87.11;102065.81;5079226;28;20032;-67
2021/11/14 03:35:48;;;;;;;0.00;0.00;;;;;;;9.33;87.57;102073.72;5045989;28;20028;-67
2021/11/14 03:38:14;;;;;;;0.00;0.00;;;;;;;9.31;87.52;102068.44;5079425;28;20020;-66
2021/11/14 03:40:40;;;;;;;0.13;0.13;;;;;;;9.32;87.57;102072.84;5062398;28;20379;-66
2021/11/14 03:43:06;;;;;;;0.10;0.10;;;;;;;9.34;87.48;102078.16;5078729;28;20047;-66
2021/11/14 03:45:31;;;;;;;0.10;0.10;;;;;;;9.33;87.57;102079.88;5062058;28;20047;-66
2021/11/14 03:47:58;;;;;;;0.10;0.10;;;;;;;9.33;87.60;102077.25;5078633;28;20036;-67
2021/11/14 03:50:24;;;;;;;0.00;0.00;;;;;;;9.35;87.60;102085.19;5079863;28;20291;-67
2021/11/14 03:52:49;;;;;;;0.10;0.10;;;;;;;9.34;87.64;102083.38;5062085;28;20019;-66
2021/11/14 03:55:15;;;;;;;0.00;0.00;;;;;;;9.34;87.61;102086.88;5079400;28;20259;-67
2021/11/14 03:57:42;;;;;;;0.00;0.00;;;;;;;9.33;87.72;102079.88;5079360;28;20025;-67
2021/11/14 04:00:15;;;;;;;0.10;0.10;;;;;;;9.31;87.78;102084.13;5078119;28;20040;-66
2021/11/14 04:02:40;;;;;;;0.13;0.13;;;;;;;9.30;87.34;102084.94;5064991;28;20325;-67
2021/11/14 04:05:07;;;;;;;0.20;0.20;;;;;;;9.31;87.60;102083.22;5078996;28;20016;-67
2021/11/14 04:07:32;;;;;;;0.13;0.13;;;;;;;9.31;87.60;102089.34;5079440;28;20021;-66
2021/11/14 04:09:57;;;;;;;0.10;0.10;;;;;;;9.30;87.62;102084.94;5078187;28;20045;-66
2021/11/14 04:12:23;;;;;;;0.10;0.10;;;;;;;9.31;87.63;102097.19;5078523;28;20055;-67
2021/11/14 04:14:48;;;;;;;0.10;0.10;;;;;;;9.29;87.59;102101.41;5078280;28;20039;-66
2021/11/14 04:17:13;;;;;;;0.10;0.10;;;;;;;9.29;87.64;102106.63;5078909;28;20402;-65
2021/11/14 04:19:39;;;;;;;0.00;0.00;;;;;;;9.29;87.55;102105.75;5078677;28;20105;-65
2021/11/14 04:22:04;;;;;;;0.10;0.10;;;;;;;9.29;87.58;102105.75;5078308;28;20390;-66
2021/11/14 04:24:30;;;;;;;0.20;0.20;;;;;;;9.30;87.63;102112.78;5061735;28;20256;-66
2021/11/14 04:26:55;;;;;;;0.00;0.00;;;;;;;9.30;87.63;102115.41;5078432;28;20028;-65
2021/11/14 04:29:21;;;;;;;0.10;0.10;;;;;;;9.27;87.73;102110.91;5060759;28;20343;-67
2021/11/14 04:31:46;;;;;;;0.20;0.20;;;;;;;9.29;87.60;102119.72;5078243;28;20021;-66
2021/11/14 04:34:11;;;;;;;0.10;0.10;;;;;;;9.29;87.52;102118.84;5077640;28;20036;-67
2021/11/14 04:36:37;;;;;;;0.00;0.00;;;;;;;9.29;87.51;102127.56;5078966;28;20028;-67
2021/11/14 04:39:03;;;;;;;0.10;0.10;;;;;;;9.30;87.52;102121.53;5060566;28;20623;-67
2021/11/14 04:41:28;;;;;;;0.10;0.10;;;;;;;9.29;87.55;102127.56;5044058;28;20298;-67
2021/11/14 04:43:54;;;;;;;0.00;0.00;;;;;;;9.29;87.50;102124.94;5078386;28;20028;-67
2021/11/14 04:46:19;;;;;;;0.33;0.33;;;;;;;9.29;87.47;102132.78;5078408;28;20039;-67
2021/11/14 04:48:44;;;;;;;0.10;0.10;;;;;;;9.30;87.32;102134.59;5078099;28;20024;-67
2021/11/14 04:51:10;;;;;;;0.10;0.10;;;;;;;9.28;87.45;102137.94;5077486;28;20295;-67
2021/11/14 04:53:35;;;;;;;0.00;0.00;;;;;;;9.26;87.33;102145.69;5060882;28;20111;-67
2021/11/14 04:56:01;;;;;;;0.00;0.00;;;;;;;9.26;87.48;102142.16;5078010;28;20025;-67
2021/11/14 04:58:26;;;;;;;0.10;0.10;;;;;;;9.27;87.35;102144.00;5078006;28;20056;-67
2021/11/14 05:00:52;;;;;;;0.00;0.00;;;;;;;9.24;87.37;102144.72;5060777;28;20020;-67
2021/11/14 05:03:18;;;;;;;0.00;0.00;;;;;;;9.24;87.41;102149.94;5077821;28;20028;-67
2021/11/14 05:05:44;;;;;;;0.00;0.00;;;;;;;9.24;87.38;102151.66;5078290;28;20339;-67
2021/11/14 05:08:10;;;;;;;0.50;0.47;;;;;;;9.24;87.42;102154.25;5077031;28;20124;-67
2021/11/14 05:10:36;;;;;;;0.20;0.20;;;;;;;9.22;87.49;102148.97;5078363;28;20024;-66
2021/11/14 05:13:02;;;;;;;0.00;0.00;;;;;;;9.23;87.26;102142.00;5077483;28;20111;-67
2021/11/14 05:15:27;;;;;;;0.00;0.00;;;;;;;9.23;87.56;102153.38;5077755;28;20031;-68
2021/11/14 05:17:53;;;;;;;0.00;0.00;;;;;;;9.23;87.37;102149.84;5077381;28;20036;-66
2021/11/14 05:20:18;;;;;;;0.07;0.07;;;;;;;9.21;87.60;102155.91;5077915;28;20056;-66
2021/11/14 05:22:44;;;;;;;0.10;0.10;;;;;;;9.20;87.50;102156.72;5077826;28;20093;-66
2021/11/14 05:25:09;;;;;;;0.10;0.10;;;;;;;9.20;87.37;102159.34;5077033;28;20060;-66
2021/11/14 05:27:35;;;;;;;0.00;0.00;;;;;;;9.20;87.53;102161.94;5060307;28;20404;-67
2021/11/14 05:30:03;;;;;;;0.10;0.10;;;;;;;9.18;87.28;102170.50;5076972;28;20033;-67
2021/11/14 05:32:28;;;;;;;0.10;0.10;;;;;;;9.18;87.38;102166.19;5060379;28;20024;-67
2021/11/14 05:34:53;;;;;;;0.03;0.03;;;;;;;9.18;87.38;102173.13;5076609;28;20405;-65
2021/11/14 05:37:19;;;;;;;0.40;0.30;;;;;;;9.17;87.14;102177.44;5077424;28;20094;-67
2021/11/14 05:39:44;;;;;;;0.10;0.10;;;;;;;9.16;87.76;102186.09;5077331;28;20330;-66
2021/11/14 05:42:10;;;;;;;0.10;0.10;;;;;;;9.15;87.07;102184.31;5077209;28;20035;-67
2021/11/14 05:44:35;;;;;;;0.30;0.30;;;;;;;9.15;87.14;102189.53;5077311;28;20074;-67
2021/11/14 05:47:01;;;;;;;0.10;0.10;;;;;;;9.14;87.18;102192.97;5076418;28;20048;-65
2021/11/14 05:49:27;;;;;;;0.20;0.20;;;;;;;9.15;87.17;102192.16;5076929;28;20020;-67
2021/11/14 05:51:52;;;;;;;0.10;0.10;;;;;;;9.16;87.22;102198.28;5077297;28;20070;-68
2021/11/14 05:54:17;;;;;;;0.00;0.00;;;;;;;9.15;87.30;102201.72;5077284;28;20209;-68
2021/11/14 05:56:43;;;;;;;0.10;0.10;;;;;;;9.13;87.21;102199.00;5077322;28;20090;-66
2021/11/14 05:59:30;;;;;;;0.00;0.00;;;;;;;9.11;87.19;102202.34;5058601;28;20090;-66
2021/11/14 06:04:26;;;;;;;0.10;0.10;;;;;;;9.08;87.28;102210.91;5076914;28;19919;-67
2021/11/14 06:06:52;;;;;;;0.33;0.33;;;;;;;9.07;87.31;102214.34;5077545;28;20096;-66
2021/11/14 06:09:17;;;;;;;0.10;0.10;;;;;;;9.05;87.05;102221.19;5075738;28;20349;-66
2021/11/14 06:11:42;;;;;;;0.00;0.00;;;;;;;9.04;87.18;102222.91;5077201;28;20355;-66
2021/11/14 06:14:08;;;;;;;0.00;0.00;;;;;;;9.03;87.14;102222.81;5076803;28;20402;-66
2021/11/14 06:16:33;;;;;;;0.30;0.30;;;;;;;9.00;86.99;102233.09;5077014;28;20035;-66
2021/11/14 06:18:59;;;;;;;0.10;0.10;;;;;;;8.97;86.82;102230.31;5076170;28;20070;-66
2021/11/14 06:21:24;;;;;;;0.00;0.00;;;;;;;8.97;86.63;102235.53;5076504;28;20040;-66
2021/11/14 06:23:53;;;;;;;0.07;0.07;;;;;;;8.94;86.65;102233.63;5076960;28;20104;-66
2021/11/14 06:26:19;;;;;;;0.00;0.00;;;;;;;8.91;86.60;102236.97;5076858;28;20454;-66
2021/11/14 06:28:44;;;;;;;0.03;0.03;;;;;;;8.92;86.72;102238.78;5076769;28;20103;-66
2021/11/14 06:31:09;;;;;;;0.00;0.00;;;;;;;8.89;86.59;102238.59;5076782;28;20024;-66
2021/11/14 06:33:35;;;;;;;0.00;0.00;;;;;;;8.87;86.66;102250.69;5058557;28;20041;-67
2021/11/14 06:36:00;;;;;;;0.10;0.10;;;;;;;8.85;86.50;102244.44;5076638;28;20029;-66
2021/11/14 06:38:25;;;;;;;0.10;0.10;;;;;;;8.85;86.55;102254.00;5076581;28;20074;-66
2021/11/14 06:40:51;;;;;;;0.10;0.10;;;;;;;8.85;86.80;102254.91;5076232;28;20064;-66
2021/11/14 06:43:16;;;;;;;0.10;0.10;;;;;;;8.85;86.76;102261.84;5076633;28;20074;-67
2021/11/14 06:45:42;;;;;;;0.00;0.00;;;;;;;8.83;86.62;102272.19;5076870;28;20028;-66
2021/11/14 06:48:08;;;;;;;0.20;0.20;;;;;;;8.81;86.74;102271.22;5076038;28;20044;-67
2021/11/14 06:50:33;;;;;;;0.10;0.10;;;;;;;8.79;86.56;102278.97;5058926;28;20256;-65
2021/11/14 06:52:58;;;;;;;0.10;0.10;;;;;;;8.79;86.60;102275.47;5076686;28;20025;-66
2021/11/14 06:55:24;;;;;;;0.10;0.10;;;;;;;8.79;86.78;102285.91;5077534;28;20067;-66
2021/11/14 06:57:49;;;;;;;0.00;0.00;;;;;;;8.79;86.62;102285.91;5080242;28;20326;-66
2021/11/14 07:00:18;;;;;;;0.00;0.00;;;;;;;8.77;86.50;102282.28;5080182;28;20100;-66
2021/11/14 07:02:44;;;;;;;0.00;0.00;;;;;;;8.76;86.55;102294.47;5080168;28;20020;-66
2021/11/14 07:05:09;;;;;;;0.00;0.00;;;;;;;8.77;86.41;102303.19;5080302;28;20040;-66
2021/11/14 07:07:35;;;;;;;0.10;0.10;;;;;;;8.76;86.51;102301.38;5062103;28;20055;-66
2021/11/14 07:10:01;;;;;;;0.10;0.10;;;;;;;8.74;86.63;102309.16;5079826;28;20023;-66
2021/11/14 07:12:27;;;;;;;0.00;0.00;;;;;;;8.73;86.75;102312.53;5080450;28;20414;-65
2021/11/14 07:14:53;;;;;;;0.10;0.10;;;;;;;8.71;86.77;102316.78;5080017;28;20028;-66
2021/11/14 07:17:19;;;;;;;0.10;0.10;;;;;;;8.70;86.80;102320.22;5080346;28;20089;-67
2021/11/14 07:19:45;;;;;;;0.00;0.00;;;;;;;8.69;86.75;102327.94;5062369;28;20450;-66
2021/11/14 07:22:10;;;;;;;0.10;0.10;;;;;;;8.68;86.66;102339.19;5079666;28;20024;-66
2021/11/14 07:24:36;;;;;;;0.10;0.10;;;;;;;8.68;86.61;102347.03;5079349;28;20028;-66
2021/11/14 07:27:02;;;;;;;0.10;0.10;;;;;;;8.66;86.64;102347.84;5079736;28;20039;-66
2021/11/14 07:29:27;;;;;;;0.10;0.10;;;;;;;8.67;86.56;102353.97;5080147;28;20025;-66
2021/11/14 07:31:53;;;;;;;0.30;0.30;;;;;;;8.68;86.65;102357.47;5079650;28;20363;-66
2021/11/14 07:34:18;;;;;;;0.00;0.00;;;;;;;8.65;86.68;102358.19;5079642;28;20357;-66
2021/11/14 07:36:43;;;;;;;0.00;0.00;;;;;;;8.69;86.57;102359.28;5079669;28;20036;-67
2021/11/14 07:39:09;;;;;;;0.10;0.10;;;;;;;8.67;86.21;102369.66;5078902;28;20036;-68
2021/11/14 07:41:34;;;;;;;0.00;0.00;;;;;;;8.70;86.32;102367.22;5079860;28;20035;-66
2021/11/14 07:44:00;;;;;;;0.00;0.00;;;;;;;8.73;86.59;102369.13;5079501;28;20028;-66
2021/11/14 07:46:26;;;;;;;0.13;0.13;;;;;;;8.74;86.18;102381.38;5061968;28;20028;-67
2021/11/14 07:48:52;;;;;;;0.00;0.00;;;;;;;8.73;86.26;102376.94;5078754;28;20067;-66
2021/11/14 07:51:18;;;;;;;0.00;0.00;;;;;;;8.71;86.23;102381.19;5079840;28;20052;-66
2021/11/14 07:53:43;;;;;;;1.20;0.27;;;;;;;8.71;86.28;102392.53;5079306;28;20032;-66
2021/11/14 07:56:09;;;;;;;0.00;0.00;;;;;;;8.67;85.68;102390.53;5061618;28;20052;-66
2021/11/14 07:58:34;;;;;;;0.03;0.03;;;;;;;8.68;85.77;102394.03;5078711;28;20359;-66
2021/11/14 08:00:59;;;;;;;0.10;0.10;;;;;;;8.70;85.87;102401.16;5072672;28;20097;-67
2021/11/14 08:03:25;;;;;;;0.60;0.60;;;;;;;8.68;85.41;102394.97;5061722;28;20029;-67
2021/11/14 08:05:50;;;;;;;0.03;0.03;;;;;;;8.69;84.90;102396.75;5059242;28;20107;-66
2021/11/14 08:08:16;;;;;;;0.00;0.00;;;;;;;8.70;85.04;102395.06;5059222;28;20052;-66
2021/11/14 08:10:42;;;;;;;0.93;0.40;;;;;;;8.69;84.89;102401.06;5077906;28;20064;-67
2021/11/14 08:13:08;;;;;;;0.10;0.10;;;;;;;8.66;84.45;102410.53;5077677;28;20067;-66
2021/11/14 08:15:34;;;;;;;0.00;0.00;;;;;;;8.65;84.42;102408.72;5077983;28;20028;-67
2021/11/14 08:18:00;;;;;;;0.10;0.10;;;;;;;8.66;84.14;102413.13;5076981;28;20036;-66
2021/11/14 08:20:25;;;;;;;0.10;0.10;;;;;;;8.73;84.48;102413.53;5077388;28;20218;-66
2021/11/14 08:22:50;;;;;;;0.03;0.03;;;;;;;8.73;84.45;102418.75;5078693;28;20060;-66
2021/11/14 08:25:17;;;;;;;0.27;0.27;;;;;;;8.72;84.39;102419.56;5078686;28;20085;-66
2021/11/14 08:27:44;;;;;;;0.10;0.10;;;;;;;8.75;84.65;102415.41;5061427;28;20039;-67
2021/11/14 08:30:13;;;;;;;0.10;0.10;;;;;;;8.74;84.46;102415.31;5077142;28;20374;-66
2021/11/14 08:32:38;;;;;;;0.00;0.00;;;;;;;8.74;84.65;102418.84;5060832;28;20024;-66
2021/11/14 08:35:04;;;;;;;0.10;0.10;;;;;;;8.72;84.71;102422.16;5078323;28;20295;-66
2021/11/14 08:37:30;;;;;;;0.10;0.10;;;;;;;8.75;84.91;102423.25;5061283;28;20111;-66
2021/11/14 08:39:55;;;;;;;0.10;0.10;;;;;;;8.75;84.92;102425.88;5059579;28;20408;-67
2021/11/14 08:42:21;;;;;;;0.10;0.10;;;;;;;8.75;84.80;102424.94;5045035;28;20396;-67
2021/11/14 08:44:47;;;;;;;0.00;0.00;;;;;;;8.73;85.07;102424.84;5058450;28;20371;-66
2021/11/14 08:47:12;;;;;;;0.10;0.10;;;;;;;8.75;85.08;102427.56;5077534;28;20028;-67
2021/11/14 08:49:38;;;;;;;0.10;0.10;;;;;;;8.76;85.27;102437.19;5077770;28;20321;-68
2021/11/14 08:52:04;;;;;;;0.10;0.10;;;;;;;8.75;84.87;102431.09;5077317;28;20040;-67
2021/11/14 08:54:30;;;;;;;0.10;0.10;;;;;;;8.76;84.92;102424.13;5060985;28;20028;-67
2021/11/14 08:56:55;;;;;;;0.00;0.00;;;;;;;8.77;85.01;102431.16;5060520;28;20029;-66
2021/11/14 08:59:21;;;;;;;0.00;0.00;;;;;;;8.79;84.53;102435.69;5077835;28;20035;-66
2021/11/14 09:01:46;;;;;;;0.10;0.10;;;;;;;8.82;84.61;102434.09;5076748;28;20032;-66
2021/11/14 09:04:11;;;;;;;0.10;0.10;;;;;;;8.83;84.69;102444.59;5057949;28;20458;-67
2021/11/14 09:06:38;;;;;;;0.10;0.10;;;;;;;8.85;84.58;102444.72;5049578;28;20039;-67
2021/11/14 09:09:05;;;;;;;0.00;0.00;;;;;;;8.87;84.51;102448.31;5077293;28;20028;-68
2021/11/14 09:11:31;;;;;;;0.00;0.00;;;;;;;8.89;84.53;102451.91;5058545;28;20025;-67
2021/11/14 09:13:56;;;;;;;0.27;0.27;;;;;;;8.91;84.66;102448.59;5057282;28;20446;-68
2021/11/14 09:16:27;;;;;;;0.10;0.10;;;;;;;8.93;83.97;102461.75;5077493;28;20322;-67
2021/11/14 09:18:52;;;;;;;0.40;0.40;;;;;;;8.94;84.47;102453.09;5076373;28;20025;-67
2021/11/14 09:21:18;;;;;;;0.10;0.10;;;;;;;8.97;84.40;102455.88;5077145;28;20048;-68
2021/11/14 09:23:43;;;;;;;0.10;0.10;;;;;;;8.97;84.03;102455.88;5077680;28;20028;-66
2021/11/14 09:26:09;;;;;;;0.03;0.03;;;;;;;8.99;83.74;102459.53;5076291;28;20040;-66
2021/11/14 09:28:34;;;;;;;0.10;0.10;;;;;;;9.00;83.73;102458.72;5074195;28;20379;-67
2021/11/14 09:31:00;;;;;;;0.10;0.10;;;;;;;9.07;84.03;102462.59;5075233;28;20032;-67
2021/11/14 09:33:27;;;;;;;0.10;0.10;;;;;;;9.10;83.81;102477.56;5075892;28;20128;-67
2021/11/14 09:35:53;;;;;;;0.10;0.10;;;;;;;9.12;83.99;102476.84;5076056;28;20064;-67
2021/11/14 09:38:19;;;;;;;0.83;0.83;;;;;;;9.12;83.52;102482.06;5075576;28;20063;-68
2021/11/14 09:40:44;;;;;;;0.10;0.10;;;;;;;9.12;83.49;102484.69;5056761;28;20370;-68
2021/11/14 09:43:10;;;;;;;0.20;0.20;;;;;;;9.12;83.80;102487.28;5075760;28;20068;-68
2021/11/14 09:45:37;;;;;;;0.10;0.10;;;;;;;9.12;83.53;102494.22;5046222;28;20078;-68
2021/11/14 09:48:04;;;;;;;0.13;0.13;;;;;;;9.13;83.07;102501.25;5076421;28;20032;-68
2021/11/14 09:50:29;;;;;;;0.10;0.10;;;;;;;9.10;82.64;102496.75;5059111;28;20094;-67
2021/11/14 09:52:55;;;;;;;0.10;0.10;;;;;;;9.13;83.20;102506.47;5059675;28;20383;-67
2021/11/14 09:55:21;;;;;;;0.10;0.10;;;;;;;9.19;83.38;102510.38;5075620;28;20028;-68
2021/11/14 09:57:48;;;;;;;0.10;0.10;;;;;;;9.23;83.72;102510.56;5071647;28;20233;-68
2021/11/14 10:00:16;;;;;;;0.00;0.00;;;;;;;9.26;83.43;102515.97;5076834;28;20032;-67
2021/11/14 10:02:42;;;;;;;0.10;0.10;;;;;;;9.26;83.52;102519.50;5070499;28;20098;-69
2021/11/14 10:05:14;;;;;;;0.10;0.10;;;;;;;9.26;82.91;102518.56;5077034;28;20032;-66
2021/11/14 10:07:41;;;;;;;0.10;0.10;;;;;;;9.26;82.70;102516.88;5059543;28;20025;-68
2021/11/14 10:10:08;;;;;;;0.20;0.20;;;;;;;9.30;83.16;102523.19;5057094;28;20037;-68
2021/11/14 10:12:38;;;;;;;0.10;0.10;;;;;;;9.33;82.47;102523.38;5064102;28;20037;-68
2021/11/14 10:15:11;;;;;;;0.10;0.10;;;;;;;9.34;82.26;102522.59;5076808;28;20044;-72
2021/11/14 10:17:37;;;;;;;0.20;0.20;;;;;;;9.33;82.14;102529.50;5070194;28;20028;-68
2021/11/14 10:20:07;;;;;;;0.10;0.10;;;;;;;9.36;82.18;102526.19;5074010;28;20090;-68
2021/11/14 10:22:34;;;;;;;0.10;0.10;;;;;;;9.38;82.63;102528.88;5075087;28;20032;-68
2021/11/14 10:24:59;;;;;;;0.20;0.20;;;;;;;9.43;82.89;102527.44;5056977;28;20111;-67
2021/11/14 10:27:26;;;;;;;0.10;0.10;;;;;;;9.40;82.58;102524.66;5076451;28;20447;-68
2021/11/14 10:29:53;;;;;;;0.10;0.10;;;;;;;9.37;81.97;102528.00;5076612;28;20017;-68
2021/11/14 10:32:18;;;;;;;0.10;0.10;;;;;;;9.37;82.17;102530.59;5081327;28;20032;-68
2021/11/14 10:34:52;;;;;;;0.20;0.20;;;;;;;9.41;82.29;102535.19;5079122;28;20050;-69
2021/11/14 10:37:21;;;;;;;0.10;0.10;;;;;;;9.42;81.65;102534.41;5079495;28;20028;-68
2021/11/14 10:39:59;;;;;;;0.63;0.37;;;;;;;9.43;81.94;102540.53;5056196;28;20111;-68
2021/11/14 10:42:28;;;;;;;0.10;0.10;;;;;;;9.43;82.06;102549.28;5061442;28;20448;-68
2021/11/14 10:44:57;;;;;;;0.10;0.10;;;;;;;9.45;82.26;102541.50;5079368;28;20413;-68
2021/11/14 10:47:23;;;;;;;0.07;0.07;;;;;;;9.43;81.43;102546.66;5077558;28;20347;-67
2021/11/14 10:50:11;;;;;;;0.20;0.20;;;;;;;9.44;81.55;102551.09;5061632;28;20021;-68
2021/11/14 10:52:38;;;;;;;0.23;0.23;;;;;;;9.44;81.39;102553.69;5076704;28;20036;-69
2021/11/14 10:55:08;;;;;;;0.10;0.10;;;;;;;9.45;82.07;102552.88;5039167;28;20041;-68
2021/11/14 10:57:34;;;;;;;0.30;0.30;;;;;;;9.44;81.61;102561.53;5078900;28;20036;-69
2021/11/14 11:00:00;;;;;;;0.30;0.30;;;;;;;9.47;81.77;102558.22;5078591;28;20044;-68
2021/11/14 11:02:27;;;;;;;0.20;0.20;;;;;;;9.48;81.54;102562.63;5060890;28;20379;-68
2021/11/14 11:05:07;;;;;;;0.27;0.27;;;;;;;9.47;81.08;102566.94;5079534;28;20028;-69
2021/11/14 11:07:33;;;;;;;0.40;0.40;;;;;;;9.45;81.03;102560.72;5079460;28;20056;-69
2021/11/14 11:09:58;;;;;;;0.03;0.03;;;;;;;9.49;81.65;102567.03;5061716;28;20024;-69
2021/11/14 11:12:26;;;;;;;0.13;0.13;;;;;;;9.51;81.30;102561.91;5080311;28;20039;-70
2021/11/14 11:15:13;;;;;;;0.20;0.20;;;;;;;9.48;80.53;102557.41;5077574;28;20041;-68
2021/11/14 11:17:42;;;;;;;;;;;;;;;9.49;80.55;102565.31;5078712;28;20047;-68
2021/11/14 11:20:09;;;;;;;0.10;0.10;;;;;;;9.49;80.95;102567.03;5079672;28;19924;-70
2021/11/14 11:22:58;;;;;;;0.20;0.20;;;;;;;9.48;80.73;102568.75;5042379;28;20036;-68
2021/11/14 11:25:32;;;;;;;0.20;0.20;;;;;;;9.47;80.99;102566.94;5059775;28;20054;-69
2021/11/14 11:27:58;;;;;;;0.27;0.27;;;;;;;9.49;81.42;102567.03;5064045;28;20040;-68
2021/11/14 11:30:29;;;;;;;0.30;0.30;;;;;;;9.46;80.88;102565.16;5061936;28;20278;-69
2021/11/14 11:32:54;;;;;;;0.33;0.33;;;;;;;9.47;81.00;102566.06;5061795;28;20123;-68